sensor_id;sensor_type;location;lat;lon;timestamp;pressure;altitude;pressure_sealevel;temperature;humidity
29045;BME280;16133;49.486;12.176;2022-11-20T00:01:46;96887.59;;;-1.36;100.00
29045;BME280;16133;49.486;12.176;2022-11-20T00:04:11;96886.78;;;-1.37;100.00
29045;BME280;16133;49.486;12.176;2022-11-20T00:06:37;96871.88;;;-1.35;100.00
29045;BME280;16133;49.486;12.176;2022-11-20T00:09:03;96870.91;;;-1.34;100.00
29045;BME280;16133;49.486;12.176;2022-11-20T00:11:31;96874.34;;;-1.33;100.00
29045;BME280;16133;49.486;12.176;2022-11-20T00:13:58;96867.63;;;-1.36;100.00
29045;BME280;16133;49.486;12.176;2022-11-20T00:16:26;96865.72;;;-1.34;100.00
29045;BME280;16133;49.486;12.176;2022-11-20T00:18:52;96858.72;;;-1.33;100.00
29045;BME280;16133;49.486;12.176;2022-11-20T00:21:25;96862.06;;;-1.31;100.00
29045;BME280;16133;49.486;12.176;2022-11-20T00:23:53;96865.59;;;-1.32;100.00
29045;BME280;16133;49.486;12.176;2022-11-20T00:26:19;96868.94;;;-1.30;100.00
29045;BME280;16133;49.486;12.176;2022-11-20T00:28:53;96861.81;;;-1.28;100.00
29045;BME280;16133;49.486;12.176;2022-11-20T00:31:19;96858.97;;;-1.36;100.00
29045;BME280;16133;49.486;12.176;2022-11-20T00:33:45;96854.00;;;-1.28;100.00
29045;BME280;16133;49.486;12.176;2022-11-20T00:36:19;96858.53;;;-1.30;100.00
29045;BME280;16133;49.486;12.176;2022-11-20T00:38:45;96866.31;;;-1.30;100.00
29045;BME280;16133;49.486;12.176;2022-11-20T00:41:13;96866.31;;;-1.30;100.00
29045;BME280;16133;49.486;12.176;2022-11-20T00:43:38;96848.81;;;-1.28;100.00
29045;BME280;16133;49.486;12.176;2022-11-20T00:46:07;96840.88;;;-1.27;100.00
29045;BME280;16133;49.486;12.176;2022-11-20T00:48:32;96855.66;;;-1.27;100.00
29045;BME280;16133;49.486;12.176;2022-11-20T00:50:58;96856.50;;;-1.27;100.00
29045;BME280;16133;49.486;12.176;2022-11-20T00:53:24;96853.75;;;-1.25;100.00
29045;BME280;16133;49.486;12.176;2022-11-20T00:55:57;96851.28;;;-1.27;100.00
29045;BME280;16133;49.486;12.176;2022-11-20T00:58:23;96851.16;;;-1.25;100.00
29045;BME280;16133;49.486;12.176;2022-11-20T01:00:49;96841.69;;;-1.26;100.00
29045;BME280;16133;49.486;12.176;2022-11-20T01:03:16;96851.03;;;-1.24;100.00
29045;BME280;16133;49.486;12.176;2022-11-20T01:05:42;96850.78;;;-1.21;100.00
29045;BME280;16133;49.486;12.176;2022-11-20T01:08:08;96853.28;;;-1.19;100.00
29045;BME280;16133;49.486;12.176;2022-11-20T01:10:33;96861.78;;;-1.17;100.00
29045;BME280;16133;49.486;12.176;2022-11-20T01:12:58;96867.84;;;-1.17;100.00
29045;BME280;16133;49.486;12.176;2022-11-20T01:15:42;96851.41;;;-1.28;100.00
29045;BME280;16133;49.486;12.176;2022-11-20T01:18:08;96876.72;;;-1.19;100.00
29045;BME280;16133;49.486;12.176;2022-11-20T01:20:35;96867.25;;;-1.20;100.00
29045;BME280;16133;49.486;12.176;2022-11-20T01:23:01;96866.53;;;-1.22;100.00
29045;BME280;16133;49.486;12.176;2022-11-20T01:25:27;96874.47;;;-1.24;100.00
29045;BME280;16133;49.486;12.176;2022-11-20T01:27:52;96878.13;;;-1.26;100.00
29045;BME280;16133;49.486;12.176;2022-11-20T01:30:18;96877.91;;;-1.23;100.00
29045;BME280;16133;49.486;12.176;2022-11-20T01:32:43;96867.50;;;-1.23;100.00
29045;BME280;16133;49.486;12.176;2022-11-20T01:35:09;96858.72;;;-1.22;100.00
29045;BME280;16133;49.486;12.176;2022-11-20T01:37:35;96866.66;;;-1.24;100.00
29045;BME280;16133;49.486;12.176;2022-11-20T01:40:00;96866.66;;;-1.24;100.00
29045;BME280;16133;49.486;12.176;2022-11-20T01:42:26;96857.09;;;-1.23;100.00
29045;BME280;16133;49.486;12.176;2022-11-20T01:48:13;96834.84;;;-1.27;100.00
29045;BME280;16133;49.486;12.176;2022-11-20T01:50:40;96850.72;;;-1.30;100.00
29045;BME280;16133;49.486;12.176;2022-11-20T01:53:09;96843.00;;;-1.32;100.00
29045;BME280;16133;49.486;12.176;2022-11-20T01:55:39;96854.00;;;-1.28;100.00
29045;BME280;16133;49.486;12.176;2022-11-20T01:58:06;96858.13;;;-1.26;100.00
29045;BME280;16133;49.486;12.176;2022-11-20T02:00:33;96853.50;;;-1.22;100.00
29045;BME280;16133;49.486;12.176;2022-11-20T02:03:00;96851.50;;;-1.19;100.00
29045;BME280;16133;49.486;12.176;2022-11-20T02:05:36;96847.84;;;-1.16;100.00
29045;BME280;16133;49.486;12.176;2022-11-20T02:08:05;96841.56;;;-1.14;100.00
29045;BME280;16133;49.486;12.176;2022-11-20T02:10:31;96842.38;;;-1.13;100.00
29045;BME280;16133;49.486;12.176;2022-11-20T02:12:57;96842.28;;;-1.12;100.00
29045;BME280;16133;49.486;12.176;2022-11-20T02:15:42;96851.84;;;-1.12;100.00
29045;BME280;16133;49.486;12.176;2022-11-20T02:18:09;96854.47;;;-1.12;100.00
29045;BME280;16133;49.486;12.176;2022-11-20T02:20:35;96858.59;;;-1.10;100.00
29045;BME280;16133;49.486;12.176;2022-11-20T02:23:10;96870.53;;;-1.07;100.00
29045;BME280;16133;49.486;12.176;2022-11-20T02:25:37;96877.28;;;-1.05;100.00
29045;BME280;16133;49.486;12.176;2022-11-20T02:28:04;96866.88;;;-1.05;100.00
29045;BME280;16133;49.486;12.176;2022-11-20T02:30:30;96862.59;;;-1.06;100.00
29045;BME280;16133;49.486;12.176;2022-11-20T02:32:55;96857.41;;;-1.06;100.00
29045;BME280;16133;49.486;12.176;2022-11-20T02:37:50;96849.00;;;-1.09;100.00
29045;BME280;16133;49.486;12.176;2022-11-20T02:40:16;96849.84;;;-1.09;100.00
29045;BME280;16133;49.486;12.176;2022-11-20T02:42:41;96849.84;;;-1.09;100.00
29045;BME280;16133;49.486;12.176;2022-11-20T02:45:08;96848.06;;;-1.08;100.00
29045;BME280;16133;49.486;12.176;2022-11-20T02:47:33;96852.28;;;-1.07;100.00
29045;BME280;16133;49.486;12.176;2022-11-20T02:49:59;96854.78;;;-1.06;100.00
29045;BME280;16133;49.486;12.176;2022-11-20T02:52:25;96853.72;;;-1.03;100.00
29045;BME280;16133;49.486;12.176;2022-11-20T02:54:51;96829.16;;;-1.21;100.00
29045;BME280;16133;49.486;12.176;2022-11-20T02:57:16;96858.81;;;-1.02;100.00
29045;BME280;16133;49.486;12.176;2022-11-20T02:59:41;96860.56;;;-1.02;100.00
29045;BME280;16133;49.486;12.176;2022-11-20T03:02:07;96851.81;;;-1.01;100.00
29045;BME280;16133;49.486;12.176;2022-11-20T03:04:32;96842.09;;;-0.99;100.00
29045;BME280;16133;49.486;12.176;2022-11-20T03:06:58;96827.19;;;-0.97;100.00
29045;BME280;16133;49.486;12.176;2022-11-20T03:09:23;96825.44;;;-0.97;100.00
29045;BME280;16133;49.486;12.176;2022-11-20T03:11:48;96833.09;;;-0.95;100.00
29045;BME280;16133;49.486;12.176;2022-11-20T03:14:14;96826.94;;;-0.94;100.00
29045;BME280;16133;49.486;12.176;2022-11-20T03:16:39;96840.91;;;-0.95;100.00
29045;BME280;16133;49.486;12.176;2022-11-20T03:19:05;96838.31;;;-0.95;100.00
29045;BME280;16133;49.486;12.176;2022-11-20T03:21:32;96833.00;;;-0.93;100.00
29045;BME280;16133;49.486;12.176;2022-11-20T03:23:58;96833.94;;;-0.94;100.00
29045;BME280;16133;49.486;12.176;2022-11-20T03:26:25;96831.31;;;-0.94;100.00
29045;BME280;16133;49.486;12.176;2022-11-20T03:29:00;96826.25;;;-0.96;100.00
29045;BME280;16133;49.486;12.176;2022-11-20T03:31:29;96826.25;;;-0.96;100.00
29045;BME280;16133;49.486;12.176;2022-11-20T03:33:58;96837.63;;;-0.97;100.00
29045;BME280;16133;49.486;12.176;2022-11-20T03:36:25;96841.16;;;-0.98;100.00
29045;BME280;16133;49.486;12.176;2022-11-20T03:38:50;96844.50;;;-0.96;100.00
29045;BME280;16133;49.486;12.176;2022-11-20T03:41:20;96844.22;;;-0.93;100.00
29045;BME280;16133;49.486;12.176;2022-11-20T03:43:56;96842.31;;;-0.91;100.00
29045;BME280;16133;49.486;12.176;2022-11-20T03:46:22;96851.06;;;-0.92;100.00
29045;BME280;16133;49.486;12.176;2022-11-20T03:48:48;96844.91;;;-0.91;100.00
29045;BME280;16133;49.486;12.176;2022-11-20T03:53:41;96842.22;;;-0.89;100.00
29045;BME280;16133;49.486;12.176;2022-11-20T03:56:07;96842.31;;;-0.91;100.00
29045;BME280;16133;49.486;12.176;2022-11-20T03:58:34;96838.88;;;-0.91;100.00
29045;BME280;16133;49.486;12.176;2022-11-20T04:01:10;96846.59;;;-0.90;100.00
29045;BME280;16133;49.486;12.176;2022-11-20T04:03:37;96835.22;;;-0.89;100.00
29045;BME280;16133;49.486;12.176;2022-11-20T04:06:23;96842.91;;;-0.87;100.00
29045;BME280;16133;49.486;12.176;2022-11-20T04:08:49;96830.59;;;-0.85;100.00
29045;BME280;16133;49.486;12.176;2022-11-20T04:11:18;96828.81;;;-0.85;100.00
29045;BME280;16133;49.486;12.176;2022-11-20T04:13:51;96825.13;;;-0.82;100.00
29045;BME280;16133;49.486;12.176;2022-11-20T04:16:18;96821.59;;;-0.81;100.00
29045;BME280;16133;49.486;12.176;2022-11-20T04:18:44;96828.31;;;-0.79;100.00
29045;BME280;16133;49.486;12.176;2022-11-20T04:21:10;96825.59;;;-0.77;100.00
29045;BME280;16133;49.486;12.176;2022-11-20T04:23:36;96818.72;;;-0.78;100.00
29045;BME280;16133;49.486;12.176;2022-11-20T04:26:07;96824.63;;;-0.76;100.00
29045;BME280;16133;49.486;12.176;2022-11-20T04:28:34;96819.31;;;-0.75;100.00
29045;BME280;16133;49.486;12.176;2022-11-20T04:33:29;96803.56;;;-0.73;100.00
29045;BME280;16133;49.486;12.176;2022-11-20T04:35:54;96806.97;;;-0.73;100.00
29045;BME280;16133;49.486;12.176;2022-11-20T04:38:20;96802.59;;;-0.72;100.00
29045;BME280;16133;49.486;12.176;2022-11-20T04:40:45;96803.41;;;-0.72;100.00
29045;BME280;16133;49.486;12.176;2022-11-20T04:43:10;96788.63;;;-0.71;100.00
29045;BME280;16133;49.486;12.176;2022-11-20T04:45:36;96800.69;;;-0.70;100.00
29045;BME280;16133;49.486;12.176;2022-11-20T04:48:01;96804.13;;;-0.70;100.00
29045;BME280;16133;49.486;12.176;2022-11-20T04:50:26;96799.75;;;-0.69;100.00
29045;BME280;16133;49.486;12.176;2022-11-20T04:52:52;96797.16;;;-0.69;100.00
29045;BME280;16133;49.486;12.176;2022-11-20T04:55:17;96800.44;;;-0.67;100.00
29045;BME280;16133;49.486;12.176;2022-11-20T04:57:42;96779.72;;;-0.69;100.00
29045;BME280;16133;49.486;12.176;2022-11-20T05:00:08;96783.88;;;-0.66;100.00
29045;BME280;16133;49.486;12.176;2022-11-20T05:02:34;96767.47;;;-0.78;100.00
29045;BME280;16133;49.486;12.176;2022-11-20T05:04:59;96786.47;;;-0.66;100.00
29045;BME280;16133;49.486;12.176;2022-11-20T05:07:24;96786.59;;;-0.68;100.00
29045;BME280;16133;49.486;12.176;2022-11-20T05:09:50;96789.19;;;-0.68;100.00
29045;BME280;16133;49.486;12.176;2022-11-20T05:12:15;96784.00;;;-0.68;100.00
29045;BME280;16133;49.486;12.176;2022-11-20T05:14:40;96784.94;;;-0.69;100.00
29045;BME280;16133;49.486;12.176;2022-11-20T05:17:10;96789.09;;;-0.66;100.00
29045;BME280;16133;49.486;12.176;2022-11-20T05:19:35;96779.50;;;-0.66;100.00
29045;BME280;16133;49.486;12.176;2022-11-20T05:22:00;96776.06;;;-0.66;100.00
29045;BME280;16133;49.486;12.176;2022-11-20T05:24:26;96777.72;;;-0.65;100.00
29045;BME280;16133;49.486;12.176;2022-11-20T05:26:51;96780.19;;;-0.64;100.00
29045;BME280;16133;49.486;12.176;2022-11-20T05:29:16;96782.78;;;-0.64;100.00
29045;BME280;16133;49.486;12.176;2022-11-20T05:31:42;96776.75;;;-0.64;100.00
29045;BME280;16133;49.486;12.176;2022-11-20T05:34:07;96773.31;;;-0.65;100.00
29045;BME280;16133;49.486;12.176;2022-11-20T05:36:33;96762.88;;;-0.65;100.00
29045;BME280;16133;49.486;12.176;2022-11-20T05:38:58;96767.16;;;-0.64;100.00
29045;BME280;16133;49.486;12.176;2022-11-20T05:41:24;96764.44;;;-0.62;100.00
29045;BME280;16133;49.486;12.176;2022-11-20T05:43:50;96770.47;;;-0.62;100.00
29045;BME280;16133;49.486;12.176;2022-11-20T05:46:18;96767.03;;;-0.62;100.00
29045;BME280;16133;49.486;12.176;2022-11-20T05:48:45;96757.44;;;-0.62;100.00
29045;BME280;16133;49.486;12.176;2022-11-20T05:51:16;96762.50;;;-0.60;100.00
29045;BME280;16133;49.486;12.176;2022-11-20T05:53:42;96758.13;;;-0.60;100.00
29045;BME280;16133;49.486;12.176;2022-11-20T05:56:11;96758.13;;;-0.60;100.00
29045;BME280;16133;49.486;12.176;2022-11-20T05:58:37;96754.59;;;-0.59;100.00
29045;BME280;16133;49.486;12.176;2022-11-20T06:03:39;96747.44;;;-0.57;100.00
29045;BME280;16133;49.486;12.176;2022-11-20T06:06:06;96755.97;;;-0.55;100.00
29045;BME280;16133;49.486;12.176;2022-11-20T06:08:32;96747.19;;;-0.54;100.00
29045;BME280;16133;49.486;12.176;2022-11-20T06:10:57;96746.97;;;-0.51;100.00
29045;BME280;16133;49.486;12.176;2022-11-20T06:13:23;96745.31;;;-0.52;100.00
29045;BME280;16133;49.486;12.176;2022-11-20T06:15:52;96738.16;;;-0.50;100.00
29045;BME280;16133;49.486;12.176;2022-11-20T06:18:18;96744.22;;;-0.49;100.00
29045;BME280;16133;49.486;12.176;2022-11-20T06:20:44;96742.44;;;-0.49;100.00
29045;BME280;16133;49.486;12.176;2022-11-20T06:23:10;96737.94;;;-0.46;100.00
29045;BME280;16133;49.486;12.176;2022-11-20T06:25:42;96729.28;;;-0.47;100.00
29045;BME280;16133;49.486;12.176;2022-11-20T06:28:08;96727.50;;;-0.46;100.00
29045;BME280;16133;49.486;12.176;2022-11-20T06:30:35;96725.72;;;-0.46;100.00
29045;BME280;16133;49.486;12.176;2022-11-20T06:33:01;96721.31;;;-0.45;100.00
29045;BME280;16133;49.486;12.176;2022-11-20T06:35:26;96722.97;;;-0.44;100.00
29045;BME280;16133;49.486;12.176;2022-11-20T06:37:52;96712.56;;;-0.44;100.00
29045;BME280;16133;49.486;12.176;2022-11-20T06:40:17;96717.66;;;-0.43;100.00
29045;BME280;16133;49.486;12.176;2022-11-20T06:42:43;96714.91;;;-0.41;100.00
29045;BME280;16133;49.486;12.176;2022-11-20T06:45:09;96720.94;;;-0.41;100.00
29045;BME280;16133;49.486;12.176;2022-11-20T06:47:34;96713.00;;;-0.39;100.00
29045;BME280;16133;49.486;12.176;2022-11-20T06:50:00;96714.66;;;-0.38;100.00
29045;BME280;16133;49.486;12.176;2022-11-20T06:52:25;96716.19;;;-0.36;100.00
29045;BME280;16133;49.486;12.176;2022-11-20T06:54:50;96706.59;;;-0.35;100.00
29045;BME280;16133;49.486;12.176;2022-11-20T06:57:16;96708.94;;;-0.32;100.00
29045;BME280;16133;49.486;12.176;2022-11-20T07:02:23;96721.69;;;-0.29;100.00
29045;BME280;16133;49.486;12.176;2022-11-20T07:04:49;96721.56;;;-0.28;100.00
29045;BME280;16133;49.486;12.176;2022-11-20T07:07:14;96721.44;;;-0.26;100.00
29045;BME280;16133;49.486;12.176;2022-11-20T07:09:39;96723.09;;;-0.25;100.00
29045;BME280;16133;49.486;12.176;2022-11-20T07:12:05;96723.09;;;-0.25;100.00
29045;BME280;16133;49.486;12.176;2022-11-20T07:14:30;96715.16;;;-0.24;100.00
29045;BME280;16133;49.486;12.176;2022-11-20T07:16:56;96712.28;;;-0.21;100.00
29045;BME280;16133;49.486;12.176;2022-11-20T07:19:21;96714.75;;;-0.19;100.00
29045;BME280;16133;49.486;12.176;2022-11-20T07:21:46;96707.63;;;-0.17;100.00
29045;BME280;16133;49.486;12.176;2022-11-20T07:24:12;96708.31;;;-0.15;100.00
29045;BME280;16133;49.486;12.176;2022-11-20T07:26:37;96702.84;;;-0.12;100.00
29045;BME280;16133;49.486;12.176;2022-11-20T07:29:02;96701.38;;;-0.05;100.00
29045;BME280;16133;49.486;12.176;2022-11-20T07:31:28;96709.03;;;-0.04;100.00
29045;BME280;16133;49.486;12.176;2022-11-20T07:33:53;96713.44;;;-0.04;100.00
29045;BME280;16133;49.486;12.176;2022-11-20T07:36:19;96713.69;;;-0.07;100.00
29045;BME280;16133;49.486;12.176;2022-11-20T07:38:46;96713.69;;;-0.07;100.00
29045;BME280;16133;49.486;12.176;2022-11-20T07:41:11;96714.53;;;-0.07;100.00
29045;BME280;16133;49.486;12.176;2022-11-20T07:43:36;96718.66;;;-0.04;100.00
29045;BME280;16133;49.486;12.176;2022-11-20T07:46:02;96717.56;;;-0.02;100.00
29045;BME280;16133;49.486;12.176;2022-11-20T07:48:29;96709.47;;;0.02;100.00
29045;BME280;16133;49.486;12.176;2022-11-20T07:50:57;96721.41;;;0.04;100.00
29045;BME280;16133;49.486;12.176;2022-11-20T07:53:23;96713.59;;;0.04;100.00
29045;BME280;16133;49.486;12.176;2022-11-20T07:55:49;96715.25;;;0.05;100.00
29045;BME280;16133;49.486;12.176;2022-11-20T07:58:17;96708.13;;;0.07;100.00
29045;BME280;16133;49.486;12.176;2022-11-20T08:00:42;96720.09;;;0.10;100.00
29045;BME280;16133;49.486;12.176;2022-11-20T08:03:08;96707.88;;;0.10;100.00
29045;BME280;16133;49.486;12.176;2022-11-20T08:05:33;96705.00;;;0.13;100.00
29045;BME280;16133;49.486;12.176;2022-11-20T08:07:59;96711.03;;;0.14;100.00
29045;BME280;16133;49.486;12.176;2022-11-20T08:10:24;96709.00;;;0.17;100.00
29045;BME280;16133;49.486;12.176;2022-11-20T08:12:51;96711.19;;;0.22;100.00
29045;BME280;16133;49.486;12.176;2022-11-20T08:15:37;96709.72;;;0.29;100.00
29045;BME280;16133;49.486;12.176;2022-11-20T08:18:09;96705.59;;;0.36;100.00
29045;BME280;16133;49.486;12.176;2022-11-20T08:20:36;96713.16;;;0.39;100.00
29045;BME280;16133;49.486;12.176;2022-11-20T08:23:03;96721.81;;;0.39;100.00
29045;BME280;16133;49.486;12.176;2022-11-20T08:25:31;96731.97;;;0.42;100.00
29045;BME280;16133;49.486;12.176;2022-11-20T08:27:58;96717.97;;;0.43;100.00
29045;BME280;16133;49.486;12.176;2022-11-20T08:30:24;96723.75;;;0.47;100.00
29045;BME280;16133;49.486;12.176;2022-11-20T08:32:49;96723.47;;;0.50;100.00
29045;BME280;16133;49.486;12.176;2022-11-20T08:35:15;96723.91;;;0.55;100.00
29045;BME280;16133;49.486;12.176;2022-11-20T08:37:40;96722.81;;;0.58;100.00
29045;BME280;16133;49.486;12.176;2022-11-20T08:40:09;96727.78;;;0.61;100.00
29045;BME280;16133;49.486;12.176;2022-11-20T08:42:35;96714.56;;;0.62;100.00
29045;BME280;16133;49.486;12.176;2022-11-20T08:45:00;96721.44;;;0.63;100.00
29045;BME280;16133;49.486;12.176;2022-11-20T08:47:25;96720.78;;;0.71;100.00
29045;BME280;16133;49.486;12.176;2022-11-20T08:49:51;96712.81;;;0.82;100.00
29045;BME280;16133;49.486;12.176;2022-11-20T08:52:16;96703.06;;;0.93;100.00
29045;BME280;16133;49.486;12.176;2022-11-20T08:54:41;96708.84;;;1.07;100.00
29045;BME280;16133;49.486;12.176;2022-11-20T08:57:07;96696.31;;;1.10;100.00
29045;BME280;16133;49.486;12.176;2022-11-20T08:59:32;96705.91;;;1.38;100.00
29045;BME280;16133;49.486;12.176;2022-11-20T09:01:58;96705.63;;;1.51;100.00
29045;BME280;16133;49.486;12.176;2022-11-20T09:04:23;96713.03;;;1.56;100.00
29045;BME280;16133;49.486;12.176;2022-11-20T09:06:49;96712.34;;;1.54;100.00
29045;BME280;16133;49.486;12.176;2022-11-20T09:09:16;96714.41;;;1.50;100.00
29045;BME280;16133;49.486;12.176;2022-11-20T09:11:42;96715.66;;;1.56;100.00
29045;BME280;16133;49.486;12.176;2022-11-20T09:14:07;96715.78;;;1.64;100.00
29045;BME280;16133;49.486;12.176;2022-11-20T09:16:33;96718.22;;;1.75;100.00
29045;BME280;16133;49.486;12.176;2022-11-20T09:18:58;96720.94;;;1.83;100.00
29045;BME280;16133;49.486;12.176;2022-11-20T09:21:27;96719.69;;;1.87;100.00
29045;BME280;16133;49.486;12.176;2022-11-20T09:23:52;96710.44;;;1.92;100.00
29045;BME280;16133;49.486;12.176;2022-11-20T09:26:17;96712.88;;;2.04;100.00
29045;BME280;16133;49.486;12.176;2022-11-20T09:28:43;96705.97;;;2.12;100.00
29045;BME280;16133;49.486;12.176;2022-11-20T09:31:16;96716.13;;;2.15;100.00
29045;BME280;16133;49.486;12.176;2022-11-20T09:33:44;96720.28;;;2.18;100.00
29045;BME280;16133;49.486;12.176;2022-11-20T09:36:09;96716.81;;;2.17;100.00
29045;BME280;16133;49.486;12.176;2022-11-20T09:38:35;96715.69;;;2.20;100.00
29045;BME280;16133;49.486;12.176;2022-11-20T09:41:05;96716.94;;;2.25;100.00
29045;BME280;16133;49.486;12.176;2022-11-20T09:43:41;96714.41;;;2.33;100.00
29045;BME280;16133;49.486;12.176;2022-11-20T09:46:25;96705.31;;;2.37;100.00
29045;BME280;16133;49.486;12.176;2022-11-20T09:54:31;96700.09;;;2.55;100.00
29045;BME280;16133;49.486;12.176;2022-11-20T09:56:59;96707.50;;;2.60;100.00
29045;BME280;16133;49.486;12.176;2022-11-20T09:59:36;96702.00;;;2.53;100.00
29045;BME280;16133;49.486;12.176;2022-11-20T10:02:15;96703.56;;;2.46;100.00
29045;BME280;16133;49.486;12.176;2022-11-20T10:04:46;96702.09;;;2.44;100.00
29045;BME280;16133;49.486;12.176;2022-11-20T10:07:19;96696.03;;;2.43;100.00
29045;BME280;16133;49.486;12.176;2022-11-20T10:09:53;96688.47;;;2.40;100.00
29045;BME280;16133;49.486;12.176;2022-11-20T10:12:23;96694.13;;;2.35;100.00
29045;BME280;16133;49.486;12.176;2022-11-20T10:29:24;96622.50;;;2.72;100.00
29045;BME280;16133;49.486;12.176;2022-11-20T10:31:42;96608.94;;;2.94;100.00
29045;BME280;16133;49.486;12.176;2022-11-20T10:34:25;96596.63;;;3.12;100.00
29045;BME280;16133;49.486;12.176;2022-11-20T10:36:59;96589.41;;;3.14;100.00
29045;BME280;16133;49.486;12.176;2022-11-20T10:41:58;96590.56;;;3.12;100.00
29045;BME280;16133;49.486;12.176;2022-11-20T10:44:28;96596.94;;;3.09;100.00
29045;BME280;16133;49.486;12.176;2022-11-20T10:47:15;96588.91;;;3.11;100.00
29045;BME280;16133;49.486;12.176;2022-11-20T10:49:42;96587.34;;;3.18;100.00
29045;BME280;16133;49.486;12.176;2022-11-20T11:00:16;96584.13;;;3.32;100.00
29045;BME280;16133;49.486;12.176;2022-11-20T11:02:48;96588.50;;;3.23;100.00
29045;BME280;16133;49.486;12.176;2022-11-20T11:07:46;96611.84;;;3.09;100.00
29045;BME280;16133;49.486;12.176;2022-11-20T11:10:36;96603.00;;;3.10;100.00
29045;BME280;16133;49.486;12.176;2022-11-20T11:13:06;96602.19;;;3.09;100.00
29045;BME280;16133;49.486;12.176;2022-11-20T11:15:40;96605.63;;;3.10;100.00
29045;BME280;16133;49.486;12.176;2022-11-20T11:18:09;96610.56;;;3.13;100.00
29045;BME280;16133;49.486;12.176;2022-11-20T11:20:35;96593.19;;;3.12;100.00
29045;BME280;16133;49.486;12.176;2022-11-20T11:23:01;96594.19;;;3.19;100.00
29045;BME280;16133;49.486;12.176;2022-11-20T11:25:55;96595.03;;;3.19;100.00
29045;BME280;16133;49.486;12.176;2022-11-20T11:28:22;96584.78;;;3.34;100.00
29045;BME280;16133;49.486;12.176;2022-11-20T11:30:51;96576.19;;;3.50;100.00
29045;BME280;16133;49.486;12.176;2022-11-20T11:33:32;96567.53;;;3.57;100.00
29045;BME280;16133;49.486;12.176;2022-11-20T11:36:17;96571.00;;;3.58;100.00
29045;BME280;16133;49.486;12.176;2022-11-20T11:38:44;96576.88;;;3.52;100.00
29045;BME280;16133;49.486;12.176;2022-11-20T11:41:20;96573.75;;;3.48;100.00
29045;BME280;16133;49.486;12.176;2022-11-20T11:43:54;96571.13;;;3.48;100.00
29045;BME280;16133;49.486;12.176;2022-11-20T11:46:43;96564.72;;;3.51;100.00
29045;BME280;16133;49.486;12.176;2022-11-20T11:52:10;96570.19;;;3.31;100.00
29045;BME280;16133;49.486;12.176;2022-11-20T12:00:12;96594.13;;;3.03;100.00
29045;BME280;16133;49.486;12.176;2022-11-20T12:02:49;96592.59;;;3.00;100.00
29045;BME280;16133;49.486;12.176;2022-11-20T12:08:03;96582.69;;;3.12;100.00
29045;BME280;16133;49.486;12.176;2022-11-20T12:10:36;96581.91;;;3.19;100.00
29045;BME280;16133;49.486;12.176;2022-11-20T12:13:25;96572.13;;;3.21;100.00
29045;BME280;16133;49.486;12.176;2022-11-20T12:15:53;96568.03;;;3.27;100.00
29045;BME280;16133;49.486;12.176;2022-11-20T12:18:20;96563.53;;;3.37;100.00
29045;BME280;16133;49.486;12.176;2022-11-20T12:29:48;96674.50;;;2.84;100.00
29045;BME280;16133;49.486;12.176;2022-11-20T12:37:29;96732.88;;;1.49;100.00
29045;BME280;16133;49.486;12.176;2022-11-20T12:40:02;96700.66;;;1.48;100.00
29045;BME280;16133;49.486;12.176;2022-11-20T12:57:01;96559.28;;;2.67;100.00
29045;BME280;16133;49.486;12.176;2022-11-20T13:08:00;96554.41;;;2.54;100.00
29045;BME280;16133;49.486;12.176;2022-11-20T13:10:38;96554.63;;;2.61;100.00
29045;BME280;16133;49.486;12.176;2022-11-20T13:13:35;96540.63;;;2.70;100.00
29045;BME280;16133;49.486;12.176;2022-11-20T13:16:14;96529.56;;;2.76;100.00
29045;BME280;16133;49.486;12.176;2022-11-20T13:18:41;96533.88;;;2.85;100.00
29045;BME280;16133;49.486;12.176;2022-11-20T13:21:46;96544.72;;;2.90;100.00
29045;BME280;16133;49.486;12.176;2022-11-20T13:26:45;96536.50;;;2.85;100.00
29045;BME280;16133;49.486;12.176;2022-11-20T13:29:16;96534.84;;;2.84;100.00
29045;BME280;16133;49.486;12.176;2022-11-20T13:31:45;96536.19;;;2.88;100.00
29045;BME280;16133;49.486;12.176;2022-11-20T13:34:24;96537.19;;;2.87;100.00
29045;BME280;16133;49.486;12.176;2022-11-20T13:36:56;96541.91;;;2.83;100.00
29045;BME280;16133;49.486;12.176;2022-11-20T13:39:29;96543.97;;;2.80;100.00
29045;BME280;16133;49.486;12.176;2022-11-20T13:44:42;96542.34;;;2.79;100.00
29045;BME280;16133;49.486;12.176;2022-11-20T13:47:24;96541.06;;;2.83;100.00
29045;BME280;16133;49.486;12.176;2022-11-20T13:49:51;96541.91;;;2.83;100.00
29045;BME280;16133;49.486;12.176;2022-11-20T14:00:45;96537.34;;;2.68;100.00
29045;BME280;16133;49.486;12.176;2022-11-20T14:03:20;96534.75;;;2.68;100.00
29045;BME280;16133;49.486;12.176;2022-11-20T14:05:56;96550.66;;;2.74;100.00
29045;BME280;16133;49.486;12.176;2022-11-20T14:08:41;96554.25;;;2.73;100.00
29045;BME280;16133;49.486;12.176;2022-11-20T14:16:35;96547.53;;;2.71;100.00
29045;BME280;16133;49.486;12.176;2022-11-20T14:21:45;96557.94;;;2.63;100.00
29045;BME280;16133;49.486;12.176;2022-11-20T14:24:12;96555.09;;;2.56;100.00
29045;BME280;16133;49.486;12.176;2022-11-20T14:26:42;96556.38;;;2.52;100.00
29045;BME280;16133;49.486;12.176;2022-11-20T14:29:13;96557.34;;;2.51;100.00
29045;BME280;16133;49.486;12.176;2022-11-20T14:31:40;96555.84;;;2.49;100.00
29045;BME280;16133;49.486;12.176;2022-11-20T14:34:15;96557.13;;;2.45;100.00
29045;BME280;16133;49.486;12.176;2022-11-20T14:36:43;96565.72;;;2.37;100.00
29045;BME280;16133;49.486;12.176;2022-11-20T14:39:11;96569.91;;;2.30;100.00
29045;BME280;16133;49.486;12.176;2022-11-20T14:41:37;96568.72;;;2.24;100.00
29045;BME280;16133;49.486;12.176;2022-11-20T14:44:04;96550.53;;;2.05;100.00
29045;BME280;16133;49.486;12.176;2022-11-20T14:46:31;96579.41;;;2.13;100.00
29045;BME280;16133;49.486;12.176;2022-11-20T14:49:00;96580.34;;;2.12;100.00